Terminal Aerodrome Forecast
Issued by NWS

Current Version | Previous Version | Text Only | Print | Product List | Glossary Off
Versions: 1 2 3 4 5 6 7 8 9 10 11 12 13 14 15 16 17 18

000
FTUS41 KILN 051100 RRA
TAFLUK
TAF
KLUK 051143Z 0512/0612 00000KT 4SM BR SCT080
     FM051400 23008KT P6SM SCT060
     FM060000 00000KT P6SM SKC
     FM060700 00000KT 2SM BR SKC=

USA.gov is the U.S. government's official web portal to all federal, state and local government web resources and services.